Locust, Pennsylvania
Current Conditions -  °F | °C
As of 6:35 AM on Thursday 27 Nov 2014 (Local Time) from KHZL Reporting Station
Light Snow Light Snow  
Wind Chill: 23°   Ceiling: 700
Heat Index: 28°   Visibility: 5mi
Dew Point: 28°   Wind: 5mph
Humidity: 100%   Direction: 280°W
Pressure: 29.95"   Gusts: NA
Location:  40.8983°N, 76.4239°W
Report Text: KHZL 271135Z AUTO 28004KT 5SM -SN OVC007 M02/M02 A2995 RMK AO2
Loading
Personal Weather Stations






























Interactive Weather Map New forecast layout! Learn more

10-Day Weather Forecast

Advertisements
Track Severe Weather on mobile